createdAt,value
2022-08-02T00:00:41.919Z,18.79
2022-08-02T00:01:41.987Z,18.81
2022-08-02T00:02:41.964Z,18.82
2022-08-02T00:03:41.983Z,18.86
2022-08-02T00:04:42.003Z,18.85
2022-08-02T00:05:42.026Z,18.85
2022-08-02T00:06:42.047Z,18.82
2022-08-02T00:07:42.066Z,18.79
2022-08-02T00:08:42.090Z,18.83
2022-08-02T00:09:42.112Z,18.83
2022-08-02T00:10:42.135Z,18.83
2022-08-02T00:11:43.161Z,18.81
2022-08-02T00:12:42.175Z,18.86
2022-08-02T00:13:42.194Z,18.86
2022-08-02T00:14:42.217Z,18.86
2022-08-02T00:15:42.240Z,18.81
2022-08-02T00:16:42.266Z,18.83
2022-08-02T00:17:42.281Z,18.86
2022-08-02T00:18:42.304Z,18.81
2022-08-02T00:19:42.329Z,18.83
2022-08-02T00:20:42.346Z,18.81
2022-08-02T00:21:42.368Z,18.85
2022-08-02T00:22:42.388Z,18.83
2022-08-02T00:24:04.935Z,18.85
2022-08-02T00:24:42.434Z,18.82
2022-08-02T00:25:54.578Z,18.91
2022-08-02T00:26:42.479Z,18.82
2022-08-02T00:27:42.496Z,18.79
2022-08-02T00:28:42.521Z,18.85
2022-08-02T00:29:52.777Z,18.85
2022-08-02T00:30:42.561Z,18.86
2022-08-02T00:31:42.590Z,18.81
2022-08-02T00:32:42.609Z,18.82
2022-08-02T00:34:28.045Z,18.91
2022-08-02T00:34:42.645Z,18.82
2022-08-02T00:35:42.668Z,18.79
2022-08-02T00:36:42.690Z,18.88
2022-08-02T00:37:42.709Z,18.94
2022-08-02T00:38:42.733Z,18.91
2022-08-02T00:39:42.754Z,18.92
2022-08-02T00:40:42.778Z,18.81
2022-08-02T00:41:42.796Z,18.92
2022-08-02T00:42:42.816Z,18.86
2022-08-02T00:43:42.842Z,18.91
2022-08-02T00:44:42.860Z,18.85
2022-08-02T00:46:02.984Z,18.88
2022-08-02T00:46:42.905Z,18.81
2022-08-02T00:47:42.925Z,18.76
2022-08-02T00:48:43.173Z,18.91
2022-08-02T00:49:42.969Z,18.94
2022-08-02T00:50:42.988Z,18.91
2022-08-02T00:51:43.010Z,18.81
2022-08-02T00:52:43.030Z,18.89
2022-08-02T00:53:43.053Z,18.89
2022-08-02T00:54:43.074Z,18.91
2022-08-02T00:55:43.100Z,18.91
2022-08-02T00:56:49.568Z,18.88
2022-08-02T00:57:43.138Z,18.92
2022-08-02T00:58:43.161Z,18.89
2022-08-02T00:59:43.182Z,18.81
2022-08-02T01:00:43.205Z,18.83
2022-08-02T01:01:56.740Z,18.86
2022-08-02T01:02:43.252Z,18.83
2022-08-02T01:03:43.268Z,18.83
2022-08-02T01:04:43.299Z,18.86
2022-08-02T01:05:55.781Z,18.86
2022-08-02T01:06:43.331Z,18.89
2022-08-02T01:07:43.356Z,18.86
2022-08-02T01:08:43.849Z,18.81
2022-08-02T01:09:43.404Z,18.81
2022-08-02T01:10:43.420Z,18.81
2022-08-02T01:11:43.439Z,18.81
2022-08-02T01:12:43.462Z,18.79
2022-08-02T01:13:43.482Z,18.82
2022-08-02T01:14:43.514Z,18.85
2022-08-02T01:15:43.527Z,18.83
2022-08-02T01:16:43.551Z,18.81
2022-08-02T01:17:43.568Z,18.83
2022-08-02T01:18:43.589Z,18.85
2022-08-02T01:19:43.617Z,18.83
2022-08-02T01:20:43.633Z,18.82
2022-08-02T01:21:43.655Z,18.82
2022-08-02T01:23:01.494Z,18.86
2022-08-02T01:23:43.698Z,18.83
2022-08-02T01:24:43.718Z,18.83
2022-08-02T01:25:43.742Z,18.78
2022-08-02T01:26:43.766Z,18.82
2022-08-02T01:27:43.783Z,18.88
2022-08-02T01:28:43.806Z,18.91
2022-08-02T01:29:43.831Z,18.78
2022-08-02T01:30:43.849Z,18.88
2022-08-02T01:31:43.871Z,18.79
2022-08-02T01:32:43.893Z,18.82
2022-08-02T01:33:43.911Z,18.74
2022-08-02T01:34:43.934Z,18.81
2022-08-02T01:35:47.381Z,18.83
2022-08-02T01:36:43.977Z,18.76
2022-08-02T01:37:43.997Z,18.79
2022-08-02T01:38:44.021Z,18.81
2022-08-02T01:39:44.042Z,18.81
2022-08-02T01:40:44.064Z,18.74
2022-08-02T01:41:44.084Z,18.82
2022-08-02T01:42:44.105Z,18.81
2022-08-02T01:43:44.127Z,18.74
2022-08-02T01:44:44.151Z,18.81
2022-08-02T01:45:44.169Z,18.73
2022-08-02T01:46:44.199Z,18.81
2022-08-02T01:47:44.212Z,18.74
2022-08-02T01:48:44.235Z,18.73
2022-08-02T01:49:44.308Z,18.79
2022-08-02T01:50:44.276Z,18.70
2022-08-02T01:51:44.298Z,18.71
2022-08-02T01:52:53.301Z,18.71
2022-08-02T01:53:44.339Z,18.70
2022-08-02T01:54:44.362Z,18.68
2022-08-02T01:55:57.799Z,18.66
2022-08-02T01:56:44.404Z,18.66
2022-08-02T01:57:44.427Z,18.64
2022-08-02T01:58:44.447Z,18.63
2022-08-02T01:59:44.467Z,18.78
2022-08-02T02:00:44.494Z,18.73
2022-08-02T02:01:44.543Z,18.73
2022-08-02T02:02:44.532Z,18.64
2022-08-02T02:03:44.555Z,18.66
2022-08-02T02:04:44.580Z,18.61
2022-08-02T02:05:44.597Z,18.58
2022-08-02T02:06:44.620Z,18.67
2022-08-02T02:07:44.642Z,18.68
2022-08-02T02:08:44.663Z,18.67
2022-08-02T02:09:50.290Z,18.66
2022-08-02T02:10:44.705Z,18.61
2022-08-02T02:12:10.164Z,18.66
2022-08-02T02:12:44.748Z,18.70
2022-08-02T02:13:44.767Z,18.60
2022-08-02T02:14:50.274Z,18.64
2022-08-02T02:15:44.811Z,18.63
2022-08-02T02:16:44.832Z,18.63
2022-08-02T02:18:11.686Z,18.63
2022-08-02T02:18:44.886Z,18.58
2022-08-02T02:19:44.896Z,18.57
2022-08-02T02:20:44.917Z,18.64
2022-08-02T02:21:44.939Z,18.63
2022-08-02T02:22:44.958Z,18.60
2022-08-02T02:23:44.981Z,18.64
2022-08-02T02:24:45.003Z,18.61
2022-08-02T02:25:46.859Z,18.60
2022-08-02T02:26:50.707Z,18.57
2022-08-02T02:27:45.066Z,18.61
2022-08-02T02:28:45.088Z,18.52
2022-08-02T02:29:45.107Z,18.49
2022-08-02T02:30:45.130Z,18.46
2022-08-02T02:31:45.156Z,18.53
2022-08-02T02:32:45.174Z,18.52
2022-08-02T02:33:45.194Z,18.53
2022-08-02T02:34:45.225Z,18.53
2022-08-02T02:35:45.238Z,18.53
2022-08-02T02:36:45.258Z,18.49
2022-08-02T02:37:45.278Z,18.52
2022-08-02T02:38:45.302Z,18.52
2022-08-02T02:39:45.321Z,18.45
2022-08-02T02:40:45.346Z,18.48
2022-08-02T02:41:45.363Z,18.42
2022-08-02T02:42:49.342Z,18.48
2022-08-02T02:43:45.407Z,18.55
2022-08-02T02:44:45.429Z,18.48
2022-08-02T02:45:45.449Z,18.52
2022-08-02T02:46:45.473Z,18.46
2022-08-02T02:47:45.503Z,18.43
2022-08-02T02:48:45.517Z,18.48
2022-08-02T02:49:45.533Z,18.43
2022-08-02T02:50:45.553Z,18.42
2022-08-02T02:51:45.578Z,18.43
2022-08-02T02:52:45.598Z,18.51
2022-08-02T02:54:32.044Z,18.45
2022-08-02T02:54:45.641Z,18.48
2022-08-02T02:56:02.281Z,18.39
2022-08-02T02:56:45.683Z,18.45
2022-08-02T02:57:45.704Z,18.36
2022-08-02T02:58:45.727Z,18.48
2022-08-02T02:59:49.635Z,18.39
2022-08-02T03:00:45.815Z,18.41
2022-08-02T03:01:55.401Z,18.42
2022-08-02T03:02:45.813Z,18.39
2022-08-02T03:03:45.834Z,18.42
2022-08-02T03:04:57.153Z,18.42
2022-08-02T03:05:45.875Z,18.41
2022-08-02T03:06:45.893Z,18.41
2022-08-02T03:07:45.922Z,18.42
2022-08-02T03:08:45.938Z,18.39
2022-08-02T03:09:53.718Z,18.28
2022-08-02T03:10:45.980Z,18.27
2022-08-02T03:11:46.003Z,18.27
2022-08-02T03:12:46.025Z,18.26
2022-08-02T03:13:46.043Z,18.26
2022-08-02T03:14:46.066Z,18.27
2022-08-02T03:15:46.087Z,18.30
2022-08-02T03:16:46.114Z,18.27
2022-08-02T03:17:46.134Z,18.21
2022-08-02T03:18:46.150Z,18.16
2022-08-02T03:19:46.175Z,18.15
2022-08-02T03:20:46.194Z,18.16
2022-08-02T03:21:46.215Z,18.16
2022-08-02T03:22:46.237Z,18.15
2022-08-02T03:23:46.256Z,18.15
2022-08-02T03:24:46.275Z,18.06
2022-08-02T03:25:46.298Z,18.03
2022-08-02T03:26:46.319Z,18.11
2022-08-02T03:27:46.339Z,18.03
2022-08-02T03:28:46.361Z,18.00
2022-08-02T03:29:46.380Z,17.94
2022-08-02T03:30:46.403Z,17.94
2022-08-02T03:31:46.423Z,17.98
2022-08-02T03:32:46.444Z,17.97
2022-08-02T03:33:46.465Z,17.97
2022-08-02T03:34:46.487Z,17.90
2022-08-02T03:35:46.509Z,17.87
2022-08-02T03:36:46.529Z,17.84
2022-08-02T03:37:46.551Z,17.84
2022-08-02T03:38:46.567Z,17.84
2022-08-02T03:39:52.960Z,17.76
2022-08-02T03:40:46.612Z,17.86
2022-08-02T03:41:46.635Z,17.79
2022-08-02T03:42:46.659Z,17.76
2022-08-02T03:43:46.676Z,17.71
2022-08-02T03:44:46.696Z,17.72
2022-08-02T03:45:46.716Z,17.79
2022-08-02T03:46:46.740Z,17.75
2022-08-02T03:47:46.760Z,17.63
2022-08-02T03:48:46.780Z,17.72
2022-08-02T03:49:46.799Z,17.63
2022-08-02T03:50:46.821Z,17.68
2022-08-02T03:51:46.842Z,17.65
2022-08-02T03:52:46.865Z,17.63
2022-08-02T03:53:46.881Z,17.63
2022-08-02T03:54:46.905Z,17.60
2022-08-02T03:55:46.925Z,17.56
2022-08-02T03:56:46.947Z,17.53
2022-08-02T03:57:46.970Z,17.52
2022-08-02T03:58:49.318Z,17.57
2022-08-02T03:59:47.009Z,17.59
2022-08-02T04:00:47.071Z,17.60
2022-08-02T04:01:47.048Z,17.53
2022-08-02T04:02:47.072Z,17.52
2022-08-02T04:03:47.096Z,17.56
2022-08-02T04:04:47.115Z,17.71
2022-08-02T04:06:01.079Z,17.57
2022-08-02T04:06:47.160Z,17.68
2022-08-02T04:08:33.296Z,17.63
2022-08-02T04:08:47.198Z,17.60
2022-08-02T04:09:47.216Z,17.65
2022-08-02T04:10:47.236Z,17.65
2022-08-02T04:11:47.255Z,17.65
2022-08-02T04:12:47.277Z,17.69
2022-08-02T04:13:47.298Z,17.63
2022-08-02T04:14:47.320Z,17.71
2022-08-02T04:15:47.339Z,17.72
2022-08-02T04:16:47.362Z,17.69
2022-08-02T04:17:47.383Z,17.63
2022-08-02T04:18:47.405Z,17.69
2022-08-02T04:19:47.423Z,17.59
2022-08-02T04:20:47.444Z,17.65
2022-08-02T04:21:51.236Z,17.66
2022-08-02T04:22:47.486Z,17.60
2022-08-02T04:23:47.508Z,17.56
2022-08-02T04:24:47.529Z,17.65
2022-08-02T04:25:47.548Z,17.56
2022-08-02T04:26:48.880Z,17.57
2022-08-02T04:28:15.299Z,17.59
2022-08-02T04:28:47.612Z,17.60
2022-08-02T04:29:47.631Z,17.59
2022-08-02T04:30:47.682Z,17.69
2022-08-02T04:31:47.677Z,17.68
2022-08-02T04:32:47.693Z,17.71
2022-08-02T04:33:47.715Z,17.78
2022-08-02T04:35:17.688Z,17.78
2022-08-02T04:35:47.758Z,17.79
2022-08-02T04:36:47.777Z,17.80
2022-08-02T04:38:09.913Z,17.84
2022-08-02T04:38:47.818Z,17.86
2022-08-02T04:39:47.841Z,17.91
2022-08-02T04:40:47.862Z,17.88
2022-08-02T04:41:47.891Z,17.91
2022-08-02T04:42:47.930Z,18.00
2022-08-02T04:43:47.924Z,17.91
2022-08-02T04:44:47.944Z,17.95
2022-08-02T04:45:47.966Z,18.06
2022-08-02T04:46:47.989Z,18.11
2022-08-02T04:48:02.358Z,18.06
2022-08-02T04:48:48.027Z,18.06
2022-08-02T04:49:48.074Z,18.12
2022-08-02T04:50:48.075Z,18.12
2022-08-02T04:51:48.095Z,18.16
2022-08-02T04:52:48.121Z,18.16
2022-08-02T04:53:48.134Z,18.11
2022-08-02T04:54:48.155Z,18.13
2022-08-02T04:55:48.177Z,18.13
2022-08-02T04:56:48.199Z,18.15
2022-08-02T04:57:52.483Z,18.12
2022-08-02T04:58:48.240Z,18.21
2022-08-02T04:59:52.795Z,18.23
2022-08-02T05:00:48.329Z,18.28
2022-08-02T05:01:48.303Z,18.18
2022-08-02T05:02:48.326Z,18.24
2022-08-02T05:03:48.346Z,18.27
2022-08-02T05:04:48.370Z,18.31
2022-08-02T05:05:48.388Z,18.34
2022-08-02T05:06:48.412Z,18.30
2022-08-02T05:07:48.432Z,18.30
2022-08-02T05:08:53.045Z,18.26
2022-08-02T05:09:48.475Z,18.33
2022-08-02T05:10:48.496Z,18.30
2022-08-02T05:11:54.835Z,18.39
2022-08-02T05:12:48.539Z,18.33
2022-08-02T05:13:58.440Z,18.37
2022-08-02T05:14:48.582Z,18.39
2022-08-02T05:15:48.603Z,18.36
2022-08-02T05:16:48.623Z,18.39
2022-08-02T05:17:48.919Z,18.42
2022-08-02T05:18:48.669Z,18.45
2022-08-02T05:19:48.689Z,18.41
2022-08-02T05:20:48.710Z,18.43
2022-08-02T05:21:48.732Z,18.36
2022-08-02T05:22:48.751Z,18.37
2022-08-02T05:23:48.774Z,18.34
2022-08-02T05:24:48.796Z,18.37
2022-08-02T05:25:48.817Z,18.31
2022-08-02T05:26:48.837Z,18.30
2022-08-02T05:27:48.860Z,18.31
2022-08-02T05:28:48.884Z,18.33
2022-08-02T05:29:53.054Z,18.24
2022-08-02T05:30:48.923Z,18.27
2022-08-02T05:31:48.951Z,18.24
2022-08-02T05:32:48.967Z,18.34
2022-08-02T05:33:48.988Z,18.37
2022-08-02T05:34:49.026Z,18.37
2022-08-02T05:35:49.033Z,18.30
2022-08-02T05:36:49.052Z,18.21
2022-08-02T05:37:49.077Z,18.30
2022-08-02T05:38:49.831Z,18.28
2022-08-02T05:39:55.498Z,18.37
2022-08-02T05:40:54.542Z,18.30
2022-08-02T05:41:49.158Z,18.39
2022-08-02T05:42:49.181Z,18.42
2022-08-02T05:43:49.201Z,18.48
2022-08-02T05:44:49.223Z,18.52
2022-08-02T05:45:49.245Z,18.57
2022-08-02T05:46:49.266Z,18.67
2022-08-02T05:47:49.288Z,18.70
2022-08-02T05:48:49.440Z,18.73
2022-08-02T05:49:49.334Z,18.86
2022-08-02T05:50:49.356Z,18.81
2022-08-02T05:51:49.378Z,18.94
2022-08-02T05:52:49.402Z,19.00
2022-08-02T05:53:49.419Z,19.00
2022-08-02T05:54:49.443Z,19.04
2022-08-02T05:55:49.463Z,19.09
2022-08-02T05:56:49.510Z,19.08
2022-08-02T05:57:49.508Z,19.16
2022-08-02T05:58:49.530Z,19.15
2022-08-02T05:59:49.549Z,19.15
2022-08-02T06:00:49.574Z,19.20
2022-08-02T06:01:49.639Z,19.32
2022-08-02T06:02:49.617Z,19.29
2022-08-02T06:03:49.641Z,19.26
2022-08-02T06:04:49.660Z,19.32
2022-08-02T06:05:49.683Z,19.45
2022-08-02T06:06:49.705Z,19.39
2022-08-02T06:07:49.726Z,19.38
2022-08-02T06:08:49.747Z,19.41
2022-08-02T06:09:49.769Z,19.38
2022-08-02T06:10:49.791Z,19.44
2022-08-02T06:12:01.672Z,19.52
2022-08-02T06:12:49.841Z,19.53
2022-08-02T06:13:49.859Z,19.59
2022-08-02T06:14:54.090Z,19.60
2022-08-02T06:15:52.936Z,19.62
2022-08-02T06:16:49.924Z,19.63
2022-08-02T06:17:50.585Z,19.77
2022-08-02T06:18:49.969Z,19.77
2022-08-02T06:19:52.175Z,19.78
2022-08-02T06:20:50.014Z,19.85
2022-08-02T06:22:33.794Z,19.93
2022-08-02T06:22:50.059Z,19.92
2022-08-02T06:23:58.130Z,19.99
2022-08-02T06:24:50.103Z,20.07
2022-08-02T06:25:51.677Z,20.12
2022-08-02T06:26:50.149Z,20.14
2022-08-02T06:27:50.170Z,20.18
2022-08-02T06:28:50.193Z,20.26
2022-08-02T06:29:50.215Z,20.24
2022-08-02T06:30:50.240Z,20.39
2022-08-02T06:31:50.262Z,20.40
2022-08-02T06:32:50.284Z,20.53
2022-08-02T06:33:50.310Z,20.66
2022-08-02T06:34:50.333Z,20.75
2022-08-02T06:35:50.353Z,20.83
2022-08-02T06:36:50.375Z,21.07
2022-08-02T06:37:50.397Z,21.22
2022-08-02T06:38:50.977Z,21.45
2022-08-02T06:39:50.444Z,21.65
2022-08-02T06:40:50.469Z,21.80
2022-08-02T06:41:50.492Z,21.97
2022-08-02T06:42:50.513Z,22.18
2022-08-02T06:43:50.540Z,22.31
2022-08-02T06:44:53.095Z,22.59
2022-08-02T06:45:50.589Z,22.77
2022-08-02T06:47:11.723Z,22.93
2022-08-02T06:47:50.636Z,23.18
2022-08-02T06:48:50.702Z,23.37
2022-08-02T06:49:51.574Z,23.58
2022-08-02T06:50:50.711Z,23.81
2022-08-02T06:51:50.741Z,23.95
2022-08-02T06:52:50.767Z,24.18
2022-08-02T06:53:50.789Z,24.22
2022-08-02T06:54:50.814Z,24.47
2022-08-02T06:55:50.843Z,24.69
2022-08-02T06:56:50.867Z,24.85
2022-08-02T06:57:50.894Z,25.04
2022-08-02T06:58:50.917Z,25.24
2022-08-02T06:59:50.951Z,25.51
2022-08-02T07:00:50.982Z,25.62
2022-08-02T07:01:51.019Z,25.74
2022-08-02T07:02:51.038Z,25.78
2022-08-02T07:03:51.054Z,25.93
2022-08-02T07:04:51.080Z,25.95
2022-08-02T07:05:51.108Z,26.06
2022-08-02T07:06:51.134Z,26.29
2022-08-02T07:07:51.161Z,26.44
2022-08-02T07:09:11.207Z,26.56
2022-08-02T07:10:00.024Z,26.66
2022-08-02T07:10:51.246Z,26.74
2022-08-02T07:11:51.273Z,27.00
2022-08-02T07:12:51.301Z,27.05
2022-08-02T07:13:51.327Z,27.13
2022-08-02T07:14:51.354Z,27.20
2022-08-02T07:15:51.383Z,27.26
2022-08-02T07:16:51.409Z,27.38
2022-08-02T07:17:51.439Z,27.43
2022-08-02T07:18:51.476Z,27.47
2022-08-02T07:19:51.496Z,27.72
2022-08-02T07:20:51.531Z,27.78
2022-08-02T07:21:57.292Z,27.78
2022-08-02T07:22:51.583Z,27.95
2022-08-02T07:23:51.609Z,28.00
2022-08-02T07:24:51.644Z,27.93
2022-08-02T07:26:03.554Z,28.08
2022-08-02T07:27:10.646Z,28.04
2022-08-02T07:27:51.722Z,27.97
2022-08-02T07:28:51.750Z,28.01
2022-08-02T07:29:51.779Z,28.16
2022-08-02T07:30:51.807Z,28.25
2022-08-02T07:31:51.838Z,28.31
2022-08-02T07:32:51.865Z,28.30
2022-08-02T07:33:51.895Z,28.35
2022-08-02T07:34:53.124Z,28.47
2022-08-02T07:35:51.951Z,28.56
2022-08-02T07:36:51.987Z,28.71
2022-08-02T07:37:55.614Z,28.77
2022-08-02T07:38:52.041Z,28.80
2022-08-02T07:39:52.070Z,28.87
2022-08-02T07:40:52.097Z,28.90
2022-08-02T07:41:52.129Z,28.96
2022-08-02T07:42:52.394Z,29.03
2022-08-02T07:43:52.186Z,29.15
2022-08-02T07:44:52.219Z,29.24
2022-08-02T07:45:55.720Z,29.30
2022-08-02T07:46:52.278Z,29.37
2022-08-02T07:47:52.325Z,29.52
2022-08-02T07:48:52.428Z,29.52
2022-08-02T07:49:52.365Z,29.55
2022-08-02T07:50:52.395Z,29.50
2022-08-02T07:51:52.426Z,29.44
2022-08-02T07:52:53.649Z,29.49
2022-08-02T07:54:02.469Z,29.28
2022-08-02T07:54:52.515Z,29.34
2022-08-02T07:55:52.546Z,29.34
2022-08-02T07:56:58.215Z,29.35
2022-08-02T07:57:52.608Z,29.31
2022-08-02T07:58:52.641Z,29.30
2022-08-02T07:59:52.675Z,29.18
2022-08-02T08:00:52.703Z,29.18
2022-08-02T08:01:52.818Z,29.07
2022-08-02T08:02:56.229Z,29.05
2022-08-02T08:03:52.792Z,29.22
2022-08-02T08:04:52.821Z,29.07
2022-08-02T08:05:52.851Z,29.21
2022-08-02T08:06:52.880Z,29.24
2022-08-02T08:07:52.920Z,29.32
2022-08-02T08:08:52.944Z,29.39
2022-08-02T08:09:56.351Z,29.37
2022-08-02T08:10:53.003Z,29.43
2022-08-02T08:11:53.035Z,29.47
2022-08-02T08:12:53.066Z,29.44
2022-08-02T08:13:53.096Z,29.53
2022-08-02T08:14:53.128Z,29.46
2022-08-02T08:15:53.159Z,29.49
2022-08-02T08:16:53.190Z,29.47
2022-08-02T08:17:53.220Z,29.44
2022-08-02T08:18:53.250Z,29.47
2022-08-02T08:19:53.372Z,29.52
2022-08-02T08:20:53.314Z,29.58
2022-08-02T08:21:53.346Z,29.65
2022-08-02T08:22:53.385Z,29.61
2022-08-02T08:23:53.409Z,29.68
2022-08-02T08:24:53.441Z,29.52
2022-08-02T08:25:53.472Z,29.39
2022-08-02T08:26:53.503Z,29.44
2022-08-02T08:27:53.535Z,29.39
2022-08-02T08:28:53.568Z,29.21
2022-08-02T08:29:53.597Z,29.07
2022-08-02T08:30:53.630Z,28.94
2022-08-02T08:31:53.660Z,28.93
2022-08-02T08:32:53.696Z,28.84
2022-08-02T08:33:53.725Z,28.71
2022-08-02T08:34:53.755Z,28.67
2022-08-02T08:35:53.787Z,28.56
2022-08-02T08:36:53.819Z,28.49
2022-08-02T08:37:53.845Z,28.38
2022-08-02T08:38:53.880Z,28.33
2022-08-02T08:39:58.490Z,28.23
2022-08-02T08:40:53.942Z,28.10
2022-08-02T08:41:53.970Z,28.03
2022-08-02T08:42:54.002Z,27.85
2022-08-02T08:43:54.031Z,27.73
2022-08-02T08:44:54.059Z,27.78
2022-08-02T08:45:55.756Z,27.53
2022-08-02T08:46:54.119Z,27.34
2022-08-02T08:47:54.151Z,27.28
2022-08-02T08:48:54.222Z,27.22
2022-08-02T08:49:54.211Z,27.03
2022-08-02T08:50:54.240Z,27.00
2022-08-02T08:51:54.271Z,26.98
2022-08-02T08:52:54.304Z,26.96
2022-08-02T08:53:54.331Z,26.91
2022-08-02T08:54:54.361Z,26.79
2022-08-02T08:55:54.391Z,26.83
2022-08-02T08:56:54.418Z,26.81
2022-08-02T08:57:54.448Z,26.74
2022-08-02T08:58:54.477Z,26.70
2022-08-02T08:59:54.507Z,26.56
2022-08-02T09:00:54.562Z,26.56
2022-08-02T09:01:54.618Z,26.48
2022-08-02T09:02:54.593Z,26.55
2022-08-02T09:03:54.623Z,26.48
2022-08-02T09:04:55.406Z,26.46
2022-08-02T09:05:54.681Z,26.46
2022-08-02T09:06:54.711Z,26.46
2022-08-02T09:07:54.741Z,26.36
2022-08-02T09:08:54.769Z,26.42
2022-08-02T09:09:54.799Z,26.41
2022-08-02T09:10:54.829Z,26.36
2022-08-02T09:11:54.874Z,26.27
2022-08-02T09:12:54.898Z,26.36
2022-08-02T09:13:54.932Z,26.33
2022-08-02T09:14:54.946Z,26.27
2022-08-02T09:15:54.977Z,26.36
2022-08-02T09:16:55.005Z,26.34
2022-08-02T09:17:55.036Z,26.29
2022-08-02T09:18:55.066Z,26.36
2022-08-02T09:19:55.098Z,26.46
2022-08-02T09:20:55.129Z,26.33
2022-08-02T09:21:55.156Z,26.24
2022-08-02T09:22:55.189Z,26.42
2022-08-02T09:23:55.225Z,26.42
2022-08-02T09:24:55.247Z,26.41
2022-08-02T09:25:59.575Z,26.44
2022-08-02T09:26:55.307Z,26.49
2022-08-02T09:27:55.339Z,26.44
2022-08-02T09:28:55.381Z,26.49
2022-08-02T09:30:12.012Z,26.48
2022-08-02T09:30:55.425Z,26.42
2022-08-02T09:31:55.457Z,26.49
2022-08-02T09:32:55.484Z,26.49
2022-08-02T09:33:55.512Z,26.46
2022-08-02T09:34:55.545Z,26.52
2022-08-02T09:36:07.296Z,26.53
2022-08-02T09:36:55.600Z,26.51
2022-08-02T09:37:55.628Z,26.55
2022-08-02T09:38:55.664Z,26.73
2022-08-02T09:39:58.388Z,26.71
2022-08-02T09:40:55.720Z,26.74
2022-08-02T09:41:55.751Z,26.73
2022-08-02T09:42:55.781Z,26.76
2022-08-02T09:44:05.149Z,26.76
2022-08-02T09:44:55.847Z,26.88
2022-08-02T09:45:55.870Z,26.78
2022-08-02T09:46:55.900Z,26.93
2022-08-02T09:47:55.929Z,26.86
2022-08-02T09:48:55.979Z,26.78
2022-08-02T09:49:55.990Z,26.82
2022-08-02T09:50:56.018Z,26.93
2022-08-02T09:51:56.049Z,26.89
2022-08-02T09:52:56.081Z,27.00
2022-08-02T09:54:07.991Z,27.07
2022-08-02T09:54:56.140Z,27.20
2022-08-02T09:55:56.177Z,27.25
2022-08-02T09:56:56.203Z,27.25
2022-08-02T09:57:56.232Z,27.37
2022-08-02T09:58:56.262Z,27.47
2022-08-02T09:59:56.294Z,27.61
2022-08-02T10:00:56.422Z,27.78
2022-08-02T10:02:01.758Z,27.81
2022-08-02T10:02:56.386Z,27.88
2022-08-02T10:03:56.420Z,28.01
2022-08-02T10:04:56.450Z,28.04
2022-08-02T10:06:02.093Z,28.27
2022-08-02T10:06:56.514Z,28.43
2022-08-02T10:07:56.544Z,28.65
2022-08-02T10:08:56.579Z,28.84
2022-08-02T10:09:56.607Z,28.87
2022-08-02T10:10:56.638Z,29.07
2022-08-02T10:11:56.672Z,29.22
2022-08-02T10:12:56.705Z,29.31
2022-08-02T10:13:56.736Z,29.43
2022-08-02T10:14:56.771Z,29.58
2022-08-02T10:15:56.818Z,29.76
2022-08-02T10:16:56.834Z,29.73
2022-08-02T10:17:56.878Z,29.86
2022-08-02T10:18:56.899Z,30.01
2022-08-02T10:20:02.999Z,30.06
2022-08-02T10:20:56.965Z,30.32
2022-08-02T10:21:56.999Z,30.49
2022-08-02T10:22:57.036Z,30.71
2022-08-02T10:23:57.069Z,30.95
2022-08-02T10:24:57.100Z,31.05
2022-08-02T10:25:57.135Z,31.32
2022-08-02T10:26:57.173Z,31.51
2022-08-02T10:28:05.205Z,31.79
2022-08-02T10:28:57.243Z,32.01
2022-08-02T10:29:57.277Z,32.23
2022-08-02T10:30:57.313Z,32.41
2022-08-02T10:31:57.347Z,32.61
2022-08-02T10:32:57.384Z,32.56
2022-08-02T10:33:57.432Z,32.68
2022-08-02T10:34:57.496Z,32.51
2022-08-02T10:36:06.722Z,32.44
2022-08-02T10:36:57.528Z,32.31
2022-08-02T10:37:57.570Z,32.16
2022-08-02T10:38:57.594Z,32.16
2022-08-02T10:39:57.634Z,32.15
2022-08-02T10:40:57.665Z,31.97
2022-08-02T10:41:57.702Z,31.92
2022-08-02T10:42:57.734Z,31.85
2022-08-02T10:43:57.766Z,31.81
2022-08-02T10:44:57.800Z,31.81
2022-08-02T10:45:57.843Z,31.87
2022-08-02T10:46:57.866Z,31.89
2022-08-02T10:47:57.904Z,32.02
2022-08-02T10:48:57.972Z,32.08
2022-08-02T10:49:58.014Z,32.11
2022-08-02T10:50:58.004Z,32.29
2022-08-02T10:51:58.039Z,32.49
2022-08-02T10:52:58.075Z,32.68
2022-08-02T10:53:58.109Z,32.75
2022-08-02T10:54:58.143Z,33.04
2022-08-02T10:55:58.190Z,33.23
2022-08-02T10:56:58.214Z,33.44
2022-08-02T10:57:58.248Z,33.58
2022-08-02T10:58:58.282Z,33.82
2022-08-02T10:59:58.319Z,34.04
2022-08-02T11:00:58.444Z,34.19
2022-08-02T11:02:00.861Z,34.38
2022-08-02T11:02:58.427Z,34.63
2022-08-02T11:03:58.463Z,34.60
2022-08-02T11:04:58.502Z,34.79
2022-08-02T11:05:58.555Z,34.93
2022-08-02T11:06:58.572Z,35.08
2022-08-02T11:07:58.611Z,35.22
2022-08-02T11:08:58.648Z,35.35
2022-08-02T11:09:58.684Z,35.59
2022-08-02T11:10:58.722Z,35.76
2022-08-02T11:11:58.770Z,35.87
2022-08-02T11:12:58.797Z,36.00
2022-08-02T11:13:58.834Z,36.03
2022-08-02T11:14:58.872Z,35.96
2022-08-02T11:15:58.911Z,36.03
2022-08-02T11:16:58.950Z,36.13
2022-08-02T11:17:58.988Z,36.32
2022-08-02T11:18:59.025Z,36.50
2022-08-02T11:19:59.062Z,36.51
2022-08-02T11:20:59.099Z,36.39
2022-08-02T11:21:59.136Z,36.38
2022-08-02T11:22:59.174Z,36.48
2022-08-02T11:23:59.212Z,36.55
2022-08-02T11:24:59.251Z,36.65
2022-08-02T11:26:05.392Z,36.87
2022-08-02T11:26:59.324Z,36.96
2022-08-02T11:27:59.365Z,37.03
2022-08-02T11:28:59.403Z,37.18
2022-08-02T11:29:59.442Z,37.40
2022-08-02T11:30:59.479Z,37.53
2022-08-02T11:31:59.518Z,37.63
2022-08-02T11:32:59.555Z,37.75
2022-08-02T11:33:59.591Z,38.00
2022-08-02T11:34:59.632Z,38.04
2022-08-02T11:35:59.668Z,38.13
2022-08-02T11:36:59.708Z,38.32
2022-08-02T11:37:59.745Z,38.44
2022-08-02T11:38:59.783Z,38.44
2022-08-02T11:39:59.825Z,38.50
2022-08-02T11:40:59.864Z,38.60
2022-08-02T11:41:59.905Z,38.70
2022-08-02T11:42:59.944Z,38.75
2022-08-02T11:43:59.981Z,38.96
2022-08-02T11:45:00.022Z,39.00
2022-08-02T11:46:00.067Z,39.05
2022-08-02T11:47:00.098Z,38.79
2022-08-02T11:48:00.142Z,38.90
2022-08-02T11:49:00.237Z,39.05
2022-08-02T11:50:00.210Z,39.15
2022-08-02T11:51:00.254Z,39.22
2022-08-02T11:52:00.295Z,39.38
2022-08-02T11:53:00.336Z,39.46
2022-08-02T11:54:00.375Z,39.42
2022-08-02T11:55:00.412Z,39.66
2022-08-02T11:56:00.452Z,39.75
2022-08-02T11:57:00.493Z,39.71
2022-08-02T11:58:04.752Z,39.76
2022-08-02T11:59:00.575Z,39.70
2022-08-02T12:00:00.611Z,39.71
2022-08-02T12:01:00.649Z,39.57
2022-08-02T12:02:00.691Z,39.37
2022-08-02T12:03:00.864Z,39.23
2022-08-02T12:04:00.769Z,39.23
2022-08-02T12:05:00.808Z,39.25
2022-08-02T12:06:06.406Z,39.11
2022-08-02T12:07:00.900Z,39.05
2022-08-02T12:08:00.926Z,39.12
2022-08-02T12:09:00.966Z,39.34
2022-08-02T12:10:01.005Z,39.27
2022-08-02T12:11:01.046Z,39.26
2022-08-02T12:12:01.085Z,39.12
2022-08-02T12:13:01.123Z,39.15
2022-08-02T12:14:01.161Z,39.30
2022-08-02T12:15:01.199Z,39.52
2022-08-02T12:16:02.505Z,39.75
2022-08-02T12:17:01.283Z,39.70
2022-08-02T12:18:01.323Z,39.75
2022-08-02T12:19:01.356Z,39.76
2022-08-02T12:20:01.397Z,40.04
2022-08-02T12:21:01.437Z,40.02
2022-08-02T12:22:01.476Z,40.17
2022-08-02T12:23:01.514Z,40.28
2022-08-02T12:24:01.637Z,40.23
2022-08-02T12:25:01.594Z,40.31
2022-08-02T12:26:01.635Z,40.28
2022-08-02T12:27:01.676Z,40.26
2022-08-02T12:28:01.731Z,40.35
2022-08-02T12:29:01.765Z,40.48
2022-08-02T12:30:01.790Z,40.52
2022-08-02T12:31:01.828Z,40.46
2022-08-02T12:32:01.875Z,40.48
2022-08-02T12:33:01.909Z,40.43
2022-08-02T12:34:01.948Z,40.44
2022-08-02T12:35:01.985Z,40.59
2022-08-02T12:36:02.028Z,40.49
2022-08-02T12:37:02.068Z,40.51
2022-08-02T12:38:02.106Z,40.39
2022-08-02T12:39:02.147Z,40.42
2022-08-02T12:40:02.186Z,40.48
2022-08-02T12:41:02.228Z,40.44
2022-08-02T12:42:02.265Z,40.31
2022-08-02T12:43:02.306Z,40.31
2022-08-02T12:44:02.346Z,40.39
2022-08-02T12:45:02.387Z,40.40
2022-08-02T12:46:02.421Z,40.19
2022-08-02T12:47:02.461Z,40.19
2022-08-02T12:48:02.501Z,40.29
2022-08-02T12:49:17.541Z,40.36
2022-08-02T12:50:02.680Z,40.43
2022-08-02T12:51:02.619Z,40.32
2022-08-02T12:52:11.593Z,40.46
2022-08-02T12:53:02.704Z,40.49